createdAt,value
2019-01-14T00:00:17.411Z,99.99
2019-01-14T00:01:17.346Z,99.83
2019-01-14T00:02:17.288Z,99.44
2019-01-14T00:03:17.225Z,99.64
2019-01-14T00:04:17.168Z,99.64
2019-01-14T00:05:17.104Z,99.54
2019-01-14T00:06:17.043Z,99.64
2019-01-14T00:07:16.982Z,99.73
2019-01-14T00:08:16.919Z,99.44
2019-01-14T00:09:23.281Z,99.44
2019-01-14T00:10:16.799Z,99.64
2019-01-14T00:11:16.741Z,99.64
2019-01-14T00:12:16.677Z,99.44
2019-01-14T00:13:16.615Z,99.73
2019-01-14T00:14:16.554Z,99.44
2019-01-14T00:15:16.496Z,99.54
2019-01-14T00:16:16.433Z,99.99
2019-01-14T00:17:16.373Z,99.99
2019-01-14T00:18:16.311Z,99.99
2019-01-14T00:19:16.254Z,99.92
2019-01-14T00:20:16.191Z,99.92
2019-01-14T00:21:16.131Z,99.92
2019-01-14T00:22:16.071Z,99.83
2019-01-14T00:23:16.008Z,99.99
2019-01-14T00:24:15.945Z,99.92
2019-01-14T00:25:15.886Z,99.92
2019-01-14T00:26:15.824Z,99.99
2019-01-14T00:27:15.770Z,99.99
2019-01-14T00:28:15.702Z,99.99
2019-01-14T00:29:15.641Z,99.99
2019-01-14T00:30:15.582Z,99.99
2019-01-14T00:31:15.522Z,99.83
2019-01-14T00:32:15.461Z,99.99
2019-01-14T00:33:15.399Z,99.99
2019-01-14T00:34:15.340Z,99.99
2019-01-14T00:35:15.279Z,99.99
2019-01-14T00:36:17.663Z,99.99
2019-01-14T00:37:15.154Z,99.99
2019-01-14T00:38:15.095Z,99.99
2019-01-14T00:39:15.035Z,99.99
2019-01-14T00:40:14.973Z,99.99
2019-01-14T00:41:14.911Z,99.99
2019-01-14T00:42:14.851Z,99.99
2019-01-14T00:43:14.791Z,99.99
2019-01-14T00:44:14.729Z,99.99
2019-01-14T00:45:14.669Z,99.99
2019-01-14T00:46:14.608Z,99.99
2019-01-14T00:47:14.548Z,99.99
2019-01-14T00:48:14.485Z,99.99
2019-01-14T00:49:14.427Z,99.99
2019-01-14T00:50:14.364Z,99.99
2019-01-14T00:51:14.334Z,99.99
2019-01-14T00:52:14.242Z,99.99
2019-01-14T00:53:14.188Z,99.99
2019-01-14T00:54:14.123Z,99.83
2019-01-14T00:55:14.060Z,99.64
2019-01-14T00:56:14.002Z,99.35
2019-01-14T00:57:13.938Z,99.44
2019-01-14T00:58:13.878Z,99.64
2019-01-14T00:59:13.817Z,99.64
2019-01-14T01:00:13.759Z,99.26
2019-01-14T01:01:13.698Z,99.64
2019-01-14T01:02:13.633Z,99.83
2019-01-14T01:03:13.573Z,99.26
2019-01-14T01:04:13.511Z,99.44
2019-01-14T01:05:13.454Z,99.44
2019-01-14T01:06:13.391Z,99.54
2019-01-14T01:07:13.330Z,99.35
2019-01-14T01:08:13.271Z,99.83
2019-01-14T01:09:13.207Z,99.26
2019-01-14T01:10:13.146Z,99.83
2019-01-14T01:11:13.087Z,99.44
2019-01-14T01:12:13.025Z,99.73
2019-01-14T01:13:12.971Z,99.54
2019-01-14T01:14:12.903Z,99.07
2019-01-14T01:15:12.843Z,99.07
2019-01-14T01:16:12.785Z,99.35
2019-01-14T01:17:12.724Z,99.54
2019-01-14T01:18:12.661Z,98.79
2019-01-14T01:19:12.600Z,98.88
2019-01-14T01:20:12.537Z,98.97
2019-01-14T01:21:12.478Z,98.97
2019-01-14T01:22:12.422Z,99.07
2019-01-14T01:23:12.357Z,98.88
2019-01-14T01:24:12.295Z,99.07
2019-01-14T01:25:12.236Z,98.88
2019-01-14T01:26:12.175Z,98.88
2019-01-14T01:27:12.228Z,99.35
2019-01-14T01:28:12.053Z,98.79
2019-01-14T01:29:11.990Z,98.79
2019-01-14T01:30:11.929Z,98.79
2019-01-14T01:31:11.870Z,98.79
2019-01-14T01:32:11.807Z,98.79
2019-01-14T01:33:11.862Z,98.88
2019-01-14T01:34:11.688Z,98.88
2019-01-14T01:35:11.626Z,99.16
2019-01-14T01:36:11.563Z,99.16
2019-01-14T01:37:11.505Z,99.16
2019-01-14T01:38:11.442Z,99.16
2019-01-14T01:39:11.386Z,99.07
2019-01-14T01:40:11.325Z,99.07
2019-01-14T01:41:11.260Z,98.97
2019-01-14T01:42:11.202Z,98.40
2019-01-14T01:43:11.138Z,98.31
2019-01-14T01:44:11.078Z,98.79
2019-01-14T01:45:11.251Z,98.79
2019-01-14T01:46:10.958Z,98.59
2019-01-14T01:47:10.897Z,98.79
2019-01-14T01:48:10.838Z,98.69
2019-01-14T01:49:10.773Z,98.59
2019-01-14T01:50:10.717Z,98.59
2019-01-14T01:51:10.652Z,98.59
2019-01-14T01:52:10.590Z,98.59
2019-01-14T01:53:10.531Z,98.88
2019-01-14T01:54:10.469Z,98.79
2019-01-14T01:55:10.408Z,98.59
2019-01-14T01:56:10.346Z,98.79
2019-01-14T01:57:10.287Z,98.79
2019-01-14T01:58:10.228Z,98.59
2019-01-14T01:59:10.165Z,98.69
2019-01-14T02:00:10.103Z,98.59
2019-01-14T02:01:10.043Z,98.79
2019-01-14T02:02:09.982Z,98.79
2019-01-14T02:03:09.921Z,98.59
2019-01-14T02:04:09.860Z,98.59
2019-01-14T02:05:09.799Z,98.79
2019-01-14T02:06:09.739Z,98.59
2019-01-14T02:07:09.676Z,98.59
2019-01-14T02:08:09.616Z,98.59
2019-01-14T02:09:09.556Z,98.79
2019-01-14T02:10:09.495Z,98.79
2019-01-14T02:11:09.434Z,99.07
2019-01-14T02:12:09.372Z,98.69
2019-01-14T02:13:09.311Z,98.69
2019-01-14T02:14:09.283Z,98.69
2019-01-14T02:15:09.190Z,98.59
2019-01-14T02:16:09.194Z,98.97
2019-01-14T02:17:09.067Z,98.50
2019-01-14T02:18:09.007Z,98.79
2019-01-14T02:19:08.946Z,98.69
2019-01-14T02:20:08.885Z,98.40
2019-01-14T02:21:08.824Z,98.40
2019-01-14T02:22:08.765Z,98.69
2019-01-14T02:23:08.703Z,98.40
2019-01-14T02:25:40.219Z,98.50
2019-01-14T02:26:40.103Z,98.59
2019-01-14T02:28:33.439Z,98.40
2019-01-14T02:29:33.329Z,97.83
2019-01-14T02:30:33.263Z,97.92
2019-01-14T02:31:33.207Z,98.59
2019-01-14T02:32:33.120Z,97.83
2019-01-14T02:33:33.065Z,97.83
2019-01-14T02:34:33.002Z,98.12
2019-01-14T02:35:32.941Z,98.02
2019-01-14T02:36:32.877Z,98.21
2019-01-14T02:37:32.820Z,98.21
2019-01-14T02:38:32.759Z,97.92
2019-01-14T02:39:32.697Z,98.02
2019-01-14T02:40:32.636Z,97.92
2019-01-14T02:41:32.573Z,98.12
2019-01-14T02:42:32.513Z,98.02
2019-01-14T02:43:32.452Z,97.74
2019-01-14T02:44:32.390Z,97.92
2019-01-14T02:45:32.334Z,98.31
2019-01-14T02:46:32.269Z,97.74
2019-01-14T02:47:32.213Z,98.02
2019-01-14T02:53:19.677Z,98.02
2019-01-14T02:54:19.611Z,97.83
2019-01-14T02:56:12.401Z,98.21
2019-01-14T02:57:12.301Z,97.74
2019-01-14T02:59:05.081Z,97.92
2019-01-14T03:00:05.013Z,98.40
2019-01-14T03:05:02.249Z,98.12
2019-01-14T03:06:02.136Z,98.02
2019-01-14T03:07:54.916Z,98.02
2019-01-14T03:08:54.849Z,97.74
2019-01-14T03:10:47.690Z,97.92
2019-01-14T03:11:47.558Z,97.92
2019-01-14T03:13:40.344Z,97.83
2019-01-14T03:14:40.281Z,97.92
2019-01-14T03:16:33.111Z,97.92
2019-01-14T03:17:32.986Z,97.92
2019-01-14T03:19:25.781Z,97.55
2019-01-14T03:20:25.681Z,97.83
2019-01-14T03:22:18.958Z,97.83
2019-01-14T03:23:18.895Z,98.02
2019-01-14T03:24:18.832Z,98.12
2019-01-14T03:25:18.772Z,98.02
2019-01-14T03:26:18.711Z,98.02
2019-01-14T03:27:18.649Z,98.02
2019-01-14T03:28:18.588Z,98.02
2019-01-14T03:29:18.529Z,98.02
2019-01-14T03:30:18.468Z,98.02
2019-01-14T03:31:18.408Z,98.12
2019-01-14T03:32:18.351Z,98.02
2019-01-14T03:33:18.286Z,97.92
2019-01-14T03:34:18.223Z,97.92
2019-01-14T03:35:18.165Z,98.21
2019-01-14T03:36:18.104Z,98.02
2019-01-14T03:37:18.042Z,97.45
2019-01-14T03:38:17.982Z,97.45
2019-01-14T03:39:17.925Z,97.45
2019-01-14T03:40:17.861Z,97.74
2019-01-14T03:41:17.799Z,97.92
2019-01-14T03:42:17.737Z,97.55
2019-01-14T03:43:17.674Z,97.64
2019-01-14T03:44:17.614Z,97.64
2019-01-14T03:45:17.555Z,97.27
2019-01-14T03:46:17.495Z,97.64
2019-01-14T03:47:17.433Z,97.74
2019-01-14T03:48:17.371Z,97.17
2019-01-14T03:49:17.313Z,97.17
2019-01-14T03:50:17.249Z,97.45
2019-01-14T03:51:17.188Z,97.07
2019-01-14T03:52:17.133Z,97.45
2019-01-14T03:53:17.068Z,97.07
2019-01-14T03:54:17.004Z,97.45
2019-01-14T03:55:16.944Z,97.64
2019-01-14T03:56:16.962Z,97.55
2019-01-14T03:57:16.823Z,97.45
2019-01-14T03:58:16.765Z,97.55
2019-01-14T03:59:16.702Z,97.36
2019-01-14T04:00:16.640Z,97.55
2019-01-14T04:01:16.579Z,97.64
2019-01-14T04:02:16.521Z,97.55
2019-01-14T04:03:16.457Z,97.36
2019-01-14T04:04:16.396Z,97.45
2019-01-14T04:05:16.339Z,97.55
2019-01-14T04:06:16.277Z,97.55
2019-01-14T04:07:16.214Z,97.55
2019-01-14T04:08:16.162Z,97.55
2019-01-14T04:09:16.093Z,97.55
2019-01-14T04:10:16.036Z,97.55
2019-01-14T04:11:15.972Z,97.55
2019-01-14T04:12:15.909Z,97.55
2019-01-14T04:13:15.851Z,97.55
2019-01-14T04:14:15.789Z,97.07
2019-01-14T04:15:15.735Z,97.17
2019-01-14T04:16:15.667Z,96.98
2019-01-14T04:17:15.605Z,97.17
2019-01-14T04:18:15.545Z,97.36
2019-01-14T04:19:15.484Z,97.17
2019-01-14T04:20:15.423Z,97.45
2019-01-14T04:21:15.365Z,97.55
2019-01-14T04:22:15.305Z,97.36
2019-01-14T04:23:15.246Z,97.36
2019-01-14T04:24:15.180Z,97.17
2019-01-14T04:25:15.124Z,97.07
2019-01-14T04:26:15.056Z,97.07
2019-01-14T04:27:14.996Z,96.88
2019-01-14T04:28:14.936Z,97.17
2019-01-14T04:29:14.876Z,97.36
2019-01-14T04:30:14.813Z,97.07
2019-01-14T04:31:15.886Z,97.27
2019-01-14T04:32:14.693Z,96.98
2019-01-14T04:33:14.631Z,96.79
2019-01-14T04:34:14.634Z,96.69
2019-01-14T04:35:14.510Z,96.69
2019-01-14T04:36:14.450Z,96.88
2019-01-14T04:37:21.303Z,96.69
2019-01-14T04:38:14.326Z,96.98
2019-01-14T04:39:14.269Z,96.98
2019-01-14T04:40:14.206Z,96.60
2019-01-14T04:41:14.158Z,96.88
2019-01-14T04:42:14.085Z,96.41
2019-01-14T04:43:14.022Z,96.31
2019-01-14T04:44:13.961Z,96.69
2019-01-14T04:45:13.900Z,96.79
2019-01-14T04:46:13.838Z,96.50
2019-01-14T04:47:13.778Z,96.79
2019-01-14T04:48:13.718Z,96.88
2019-01-14T04:49:13.657Z,96.98
2019-01-14T04:50:13.627Z,96.50
2019-01-14T04:51:13.534Z,96.88
2019-01-14T04:52:13.474Z,96.50
2019-01-14T04:53:13.413Z,96.98
2019-01-14T04:54:13.352Z,96.98
2019-01-14T04:55:13.291Z,96.22
2019-01-14T04:56:13.231Z,96.22
2019-01-14T04:57:13.170Z,96.12
2019-01-14T04:58:13.108Z,96.22
2019-01-14T04:59:13.047Z,96.41
2019-01-14T05:00:12.986Z,96.12
2019-01-14T05:01:12.926Z,96.31
2019-01-14T05:02:12.864Z,96.31
2019-01-14T05:03:12.806Z,96.31
2019-01-14T05:04:12.744Z,96.41
2019-01-14T05:05:12.684Z,96.31
2019-01-14T05:06:12.621Z,96.31
2019-01-14T05:07:12.559Z,96.12
2019-01-14T05:08:12.499Z,96.12
2019-01-14T05:09:12.438Z,96.03
2019-01-14T05:10:12.376Z,96.31
2019-01-14T05:11:12.316Z,96.31
2019-01-14T05:12:12.257Z,96.12
2019-01-14T05:13:12.196Z,96.12
2019-01-14T05:14:12.134Z,96.12
2019-01-14T05:15:12.072Z,96.12
2019-01-14T05:16:12.013Z,96.12
2019-01-14T05:17:11.955Z,96.12
2019-01-14T05:18:11.890Z,96.12
2019-01-14T05:19:11.832Z,96.12
2019-01-14T05:20:11.769Z,95.94
2019-01-14T05:21:11.719Z,96.12
2019-01-14T05:22:11.650Z,95.75
2019-01-14T05:23:11.586Z,95.94
2019-01-14T05:24:11.548Z,96.22
2019-01-14T05:25:11.465Z,96.12
2019-01-14T05:26:11.404Z,96.03
2019-01-14T05:27:11.342Z,96.31
2019-01-14T05:28:11.371Z,96.12
2019-01-14T05:29:11.220Z,96.12
2019-01-14T05:30:11.158Z,96.12
2019-01-14T05:31:11.098Z,96.41
2019-01-14T05:32:11.042Z,96.41
2019-01-14T05:33:10.978Z,96.50
2019-01-14T05:34:10.916Z,96.31
2019-01-14T05:35:10.864Z,96.50
2019-01-14T05:36:10.800Z,96.41
2019-01-14T05:37:10.734Z,96.50
2019-01-14T05:38:10.671Z,96.22
2019-01-14T05:39:10.610Z,96.31
2019-01-14T05:40:10.550Z,96.50
2019-01-14T05:41:10.489Z,96.22
2019-01-14T05:42:10.427Z,96.22
2019-01-14T05:43:10.367Z,96.22
2019-01-14T05:44:10.305Z,96.31
2019-01-14T05:45:10.247Z,96.31
2019-01-14T05:46:10.185Z,96.31
2019-01-14T05:47:10.132Z,96.50
2019-01-14T05:48:10.064Z,96.50
2019-01-14T05:49:10.005Z,96.50
2019-01-14T05:50:09.940Z,96.03
2019-01-14T05:51:09.883Z,96.22
2019-01-14T05:52:09.818Z,96.12
2019-01-14T05:53:09.760Z,96.12
2019-01-14T05:54:09.698Z,96.50
2019-01-14T05:55:09.636Z,96.03
2019-01-14T05:56:09.575Z,96.03
2019-01-14T05:57:09.516Z,96.50
2019-01-14T05:58:09.455Z,96.12
2019-01-14T05:59:09.395Z,96.22
2019-01-14T06:00:09.335Z,96.41
2019-01-14T06:01:09.271Z,96.41
2019-01-14T06:02:09.211Z,96.41
2019-01-14T06:03:09.150Z,96.41
2019-01-14T06:04:09.090Z,96.41
2019-01-14T06:05:09.027Z,96.50
2019-01-14T06:06:08.969Z,96.31
2019-01-14T06:07:08.908Z,96.50
2019-01-14T06:08:08.847Z,96.60
2019-01-14T06:09:08.784Z,96.12
2019-01-14T06:10:08.730Z,96.41
2019-01-14T06:11:08.661Z,96.22
2019-01-14T06:12:08.603Z,96.60
2019-01-14T06:13:08.545Z,96.50
2019-01-14T06:14:08.528Z,96.41
2019-01-14T06:15:08.418Z,96.50
2019-01-14T06:16:08.359Z,96.12
2019-01-14T06:17:08.299Z,96.41
2019-01-14T06:18:08.238Z,96.50
2019-01-14T06:19:08.176Z,96.50
2019-01-14T06:20:08.119Z,96.41
2019-01-14T06:21:08.055Z,96.41
2019-01-14T06:22:07.992Z,96.31
2019-01-14T06:23:07.931Z,96.41
2019-01-14T06:24:07.870Z,96.50
2019-01-14T06:25:07.810Z,96.03
2019-01-14T06:26:07.748Z,96.31
2019-01-14T06:27:07.686Z,96.12
2019-01-14T06:28:07.626Z,96.22
2019-01-14T06:29:07.571Z,96.22
2019-01-14T06:30:07.504Z,96.22
2019-01-14T06:31:07.443Z,96.22
2019-01-14T06:32:07.382Z,96.31
2019-01-14T06:33:07.328Z,96.31
2019-01-14T06:34:07.397Z,96.31
2019-01-14T06:35:07.203Z,96.31
2019-01-14T06:36:07.139Z,96.50
2019-01-14T06:37:07.078Z,96.22
2019-01-14T06:38:07.021Z,96.22
2019-01-14T06:39:06.956Z,95.94
2019-01-14T06:40:06.896Z,96.03
2019-01-14T06:41:06.836Z,96.12
2019-01-14T06:42:07.637Z,96.03
2019-01-14T06:43:06.716Z,96.50
2019-01-14T06:44:06.652Z,95.84
2019-01-14T06:45:06.591Z,96.03
2019-01-14T06:46:06.530Z,96.03
2019-01-14T06:47:06.469Z,96.31
2019-01-14T06:48:06.409Z,96.31
2019-01-14T06:49:06.365Z,95.84
2019-01-14T06:50:06.285Z,95.84
2019-01-14T06:51:06.227Z,96.03
2019-01-14T06:52:06.165Z,96.03
2019-01-14T06:53:06.104Z,96.03
2019-01-14T06:54:06.043Z,96.03
2019-01-14T06:55:05.982Z,96.03
2019-01-14T06:56:05.922Z,96.22
2019-01-14T06:57:05.866Z,96.12
2019-01-14T06:58:05.798Z,96.41
2019-01-14T06:59:05.738Z,96.12
2019-01-14T07:00:05.678Z,96.12
2019-01-14T07:01:05.617Z,96.31
2019-01-14T07:02:05.558Z,96.41
2019-01-14T07:03:05.495Z,96.12
2019-01-14T07:04:05.439Z,96.03
2019-01-14T07:05:05.373Z,96.03
2019-01-14T07:06:05.311Z,95.84
2019-01-14T07:07:05.321Z,96.22
2019-01-14T07:08:05.195Z,95.84
2019-01-14T07:09:05.129Z,96.41
2019-01-14T07:10:05.068Z,95.84
2019-01-14T07:11:05.009Z,96.31
2019-01-14T07:12:04.955Z,96.41
2019-01-14T07:13:04.889Z,96.03
2019-01-14T07:14:04.827Z,96.41
2019-01-14T07:15:04.763Z,96.31
2019-01-14T07:16:04.711Z,96.03
2019-01-14T07:17:04.646Z,96.41
2019-01-14T07:18:04.580Z,95.84
2019-01-14T07:19:04.521Z,96.03
2019-01-14T07:20:04.459Z,96.03
2019-01-14T07:21:04.399Z,96.03
2019-01-14T07:22:04.399Z,95.65
2019-01-14T07:23:04.276Z,96.03
2019-01-14T07:24:04.216Z,95.94
2019-01-14T07:25:04.155Z,96.03
2019-01-14T07:26:04.117Z,96.12
2019-01-14T07:27:04.036Z,96.03
2019-01-14T07:28:03.972Z,96.12
2019-01-14T07:29:03.911Z,96.03
2019-01-14T07:30:03.851Z,96.12
2019-01-14T07:31:03.789Z,96.12
2019-01-14T07:32:03.729Z,96.03
2019-01-14T07:33:04.602Z,95.84
2019-01-14T07:34:03.605Z,96.31
2019-01-14T07:35:03.549Z,96.03
2019-01-14T07:36:03.486Z,95.75
2019-01-14T07:37:03.424Z,95.75
2019-01-14T07:38:06.836Z,95.46
2019-01-14T07:39:03.457Z,96.03
2019-01-14T07:40:03.246Z,96.03
2019-01-14T07:41:03.184Z,95.94
2019-01-14T07:42:03.125Z,96.03
2019-01-14T07:43:03.057Z,95.65
2019-01-14T07:44:02.997Z,95.84
2019-01-14T07:45:02.937Z,95.65
2019-01-14T07:46:02.875Z,95.55
2019-01-14T07:47:02.816Z,95.65
2019-01-14T07:48:02.754Z,95.65
2019-01-14T07:49:02.693Z,95.94
2019-01-14T07:50:02.633Z,95.65
2019-01-14T07:51:02.574Z,95.65
2019-01-14T07:52:02.510Z,96.31
2019-01-14T07:53:02.450Z,96.22
2019-01-14T07:54:02.390Z,95.75
2019-01-14T07:55:02.328Z,96.50
2019-01-14T07:56:02.269Z,95.65
2019-01-14T07:57:02.206Z,96.50
2019-01-14T07:58:02.144Z,95.75
2019-01-14T07:59:02.086Z,96.12
2019-01-14T08:00:02.023Z,95.55
2019-01-14T08:01:01.980Z,95.84
2019-01-14T08:02:01.902Z,96.12
2019-01-14T08:03:01.842Z,95.75
2019-01-14T08:04:01.779Z,96.31
2019-01-14T08:05:01.724Z,95.65
2019-01-14T08:06:01.662Z,95.27
2019-01-14T08:07:01.596Z,95.46
2019-01-14T08:08:01.545Z,95.84
2019-01-14T08:09:01.475Z,95.36
2019-01-14T08:10:01.417Z,95.65
2019-01-14T08:11:01.353Z,95.75
2019-01-14T08:12:01.291Z,95.75
2019-01-14T08:13:01.230Z,95.65
2019-01-14T08:14:01.172Z,95.75
2019-01-14T08:15:01.108Z,95.75
2019-01-14T08:16:01.049Z,95.75
2019-01-14T08:17:00.989Z,95.36
2019-01-14T08:18:00.927Z,95.75
2019-01-14T08:19:00.867Z,96.60
2019-01-14T08:20:00.805Z,95.84
2019-01-14T08:21:00.744Z,95.75
2019-01-14T08:22:00.683Z,95.75
2019-01-14T08:23:00.622Z,95.75
2019-01-14T08:24:00.562Z,95.75
2019-01-14T08:25:00.500Z,95.75
2019-01-14T08:26:00.439Z,95.75
2019-01-14T08:27:00.378Z,95.75
2019-01-14T08:28:00.319Z,95.75
2019-01-14T08:29:00.258Z,95.84
2019-01-14T08:30:00.265Z,95.55
2019-01-14T08:31:00.136Z,95.84
2019-01-14T08:32:00.075Z,95.75
2019-01-14T08:33:00.012Z,95.75
2019-01-14T08:33:59.952Z,95.94
2019-01-14T08:34:59.891Z,95.75
2019-01-14T08:35:59.834Z,95.94
2019-01-14T08:37:00.825Z,95.94
2019-01-14T08:37:59.711Z,95.94
2019-01-14T08:38:59.647Z,95.94
2019-01-14T08:39:59.585Z,95.94
2019-01-14T08:40:59.530Z,95.84
2019-01-14T08:41:59.463Z,95.94
2019-01-14T08:42:59.405Z,95.65
2019-01-14T08:43:59.343Z,95.65
2019-01-14T08:44:59.282Z,95.65
2019-01-14T08:45:59.220Z,95.65
2019-01-14T08:46:59.159Z,95.75
2019-01-14T08:47:59.099Z,95.75
2019-01-14T08:48:59.038Z,95.65
2019-01-14T08:49:58.978Z,95.65
2019-01-14T08:50:58.915Z,95.65
2019-01-14T08:51:58.855Z,95.55
2019-01-14T08:52:58.794Z,96.03
2019-01-14T08:53:58.734Z,95.94
2019-01-14T08:54:58.671Z,95.84
2019-01-14T08:55:58.612Z,95.94
2019-01-14T08:56:58.551Z,95.94
2019-01-14T08:57:58.490Z,95.84
2019-01-14T08:58:58.430Z,95.94
2019-01-14T08:59:58.373Z,96.03
2019-01-14T09:00:58.307Z,95.94
2019-01-14T09:01:58.246Z,96.03
2019-01-14T09:02:58.185Z,95.94
2019-01-14T09:03:58.125Z,96.03
2019-01-14T09:04:58.064Z,95.94
2019-01-14T09:05:58.002Z,96.03
2019-01-14T09:06:57.945Z,95.94
2019-01-14T09:07:57.881Z,95.94
2019-01-14T09:08:57.820Z,96.12
2019-01-14T09:09:57.758Z,95.94
2019-01-14T09:10:57.697Z,95.94
2019-01-14T09:11:57.639Z,96.12
2019-01-14T09:12:57.577Z,96.03
2019-01-14T09:13:57.514Z,95.94
2019-01-14T09:14:57.455Z,96.03
2019-01-14T09:15:57.394Z,96.22
2019-01-14T09:16:57.333Z,96.03
2019-01-14T09:18:02.705Z,96.03
2019-01-14T09:18:57.210Z,96.03
2019-01-14T09:19:57.151Z,96.03
2019-01-14T09:20:57.090Z,96.03
2019-01-14T09:21:57.063Z,96.03
2019-01-14T09:22:56.966Z,95.94
2019-01-14T09:23:56.906Z,95.94
2019-01-14T09:24:56.846Z,95.84
2019-01-14T09:25:56.784Z,95.84
2019-01-14T09:26:56.727Z,96.12
2019-01-14T09:27:56.662Z,95.94
2019-01-14T09:28:56.602Z,95.94
2019-01-14T09:29:56.542Z,96.03
2019-01-14T09:30:56.480Z,95.94
2019-01-14T09:31:56.421Z,95.84
2019-01-14T09:32:56.368Z,95.65
2019-01-14T09:33:56.297Z,95.84
2019-01-14T09:34:56.236Z,96.12
2019-01-14T09:35:56.174Z,95.94
2019-01-14T09:36:56.114Z,95.94
2019-01-14T09:37:56.056Z,95.84
2019-01-14T09:38:55.999Z,95.65
2019-01-14T09:39:55.934Z,95.84
2019-01-14T09:40:55.871Z,95.75
2019-01-14T09:41:55.811Z,95.75
2019-01-14T09:42:55.749Z,95.65
2019-01-14T09:43:55.688Z,95.65
2019-01-14T09:44:55.628Z,95.75
2019-01-14T09:45:55.566Z,95.65
2019-01-14T09:46:55.507Z,95.75
2019-01-14T09:47:55.446Z,95.84
2019-01-14T09:48:55.384Z,95.84
2019-01-14T09:49:55.323Z,95.75
2019-01-14T09:50:55.261Z,96.12
2019-01-14T09:51:55.201Z,95.94
2019-01-14T09:52:55.141Z,95.94
2019-01-14T09:53:55.080Z,96.03
2019-01-14T09:54:55.018Z,95.84
2019-01-14T09:55:54.961Z,95.94
2019-01-14T09:56:54.899Z,96.12
2019-01-14T09:57:54.835Z,96.12
2019-01-14T09:58:54.777Z,95.84
2019-01-14T09:59:54.717Z,95.84
2019-01-14T10:00:54.653Z,96.12
2019-01-14T10:01:54.593Z,96.22
2019-01-14T10:02:55.636Z,96.03
2019-01-14T10:03:54.476Z,95.94
2019-01-14T10:04:54.411Z,96.22
2019-01-14T10:05:54.348Z,95.94
2019-01-14T10:06:54.287Z,95.94
2019-01-14T10:07:54.226Z,95.94
2019-01-14T10:08:54.169Z,96.03
2019-01-14T10:09:54.106Z,96.12
2019-01-14T10:10:54.044Z,96.03
2019-01-14T10:11:53.985Z,95.94
2019-01-14T10:12:53.929Z,96.12
2019-01-14T10:13:53.862Z,95.65
2019-01-14T10:14:53.803Z,95.55
2019-01-14T10:15:53.741Z,95.65
2019-01-14T10:16:53.678Z,95.55
2019-01-14T10:17:53.620Z,95.65
2019-01-14T10:18:53.557Z,95.75
2019-01-14T10:19:53.496Z,95.55
2019-01-14T10:20:53.436Z,96.03
2019-01-14T10:21:53.378Z,96.03
2019-01-14T10:22:53.313Z,96.03
2019-01-14T10:23:53.253Z,96.03
2019-01-14T10:24:53.195Z,96.03
2019-01-14T10:25:53.132Z,95.94
2019-01-14T10:26:53.069Z,95.94
2019-01-14T10:27:53.009Z,95.94
2019-01-14T10:28:52.952Z,96.03
2019-01-14T10:29:52.888Z,95.94
2019-01-14T10:30:52.830Z,96.03
2019-01-14T10:31:52.766Z,96.03
2019-01-14T10:32:52.723Z,95.94
2019-01-14T10:33:52.646Z,95.94
2019-01-14T10:34:52.582Z,95.94
2019-01-14T10:35:52.523Z,96.03
2019-01-14T10:36:52.462Z,96.22
2019-01-14T10:37:52.402Z,95.94
2019-01-14T10:38:52.339Z,95.94
2019-01-14T10:39:52.279Z,95.94
2019-01-14T10:40:52.217Z,96.22
2019-01-14T10:41:52.156Z,96.12
2019-01-14T10:42:52.095Z,95.84
2019-01-14T10:43:52.035Z,96.03
2019-01-14T10:44:51.975Z,95.65
2019-01-14T10:45:51.913Z,95.65
2019-01-14T10:46:51.851Z,95.84
2019-01-14T10:47:51.791Z,95.75
2019-01-14T10:48:51.731Z,95.65
2019-01-14T10:49:51.669Z,96.12
2019-01-14T10:50:51.609Z,95.65
2019-01-14T10:51:51.547Z,95.84
2019-01-14T10:52:51.487Z,96.12
2019-01-14T10:53:51.426Z,96.03
2019-01-14T10:54:51.367Z,95.84
2019-01-14T10:55:51.303Z,95.75
2019-01-14T10:56:51.245Z,95.75
2019-01-14T10:57:51.182Z,95.55
2019-01-14T10:58:51.121Z,95.65
2019-01-14T10:59:51.061Z,95.75
2019-01-14T11:00:50.999Z,95.75
2019-01-14T11:02:05.645Z,95.75
2019-01-14T11:02:50.880Z,95.65
2019-01-14T11:03:50.817Z,95.55
2019-01-14T11:04:50.757Z,95.46
2019-01-14T11:05:50.695Z,95.65
2019-01-14T11:06:50.635Z,95.75
2019-01-14T11:07:50.576Z,95.65
2019-01-14T11:08:57.369Z,95.27
2019-01-14T11:09:50.451Z,95.36
2019-01-14T11:10:50.391Z,95.65
2019-01-14T11:11:50.330Z,95.27
2019-01-14T11:12:50.272Z,95.65
2019-01-14T11:13:50.208Z,95.55
2019-01-14T11:14:50.152Z,95.75
2019-01-14T11:15:50.087Z,95.65
2019-01-14T11:16:50.026Z,95.46
2019-01-14T11:17:49.965Z,95.65
2019-01-14T11:18:49.907Z,95.36
2019-01-14T11:19:49.843Z,95.36
2019-01-14T11:20:49.783Z,95.36
2019-01-14T11:21:49.721Z,95.36
2019-01-14T11:22:49.661Z,95.17
2019-01-14T11:23:49.600Z,94.98
2019-01-14T11:24:49.540Z,95.17
2019-01-14T11:25:49.477Z,95.17
2019-01-14T11:26:49.419Z,95.36
2019-01-14T11:27:49.357Z,95.17
2019-01-14T11:28:49.297Z,95.27
2019-01-14T11:29:49.240Z,95.17
2019-01-14T11:30:49.176Z,95.27
2019-01-14T11:31:49.113Z,95.12
2019-01-14T11:32:49.053Z,95.65
2019-01-14T11:33:48.991Z,95.46
2019-01-14T11:34:48.930Z,95.17
2019-01-14T11:35:48.870Z,95.27
2019-01-14T11:36:48.812Z,95.55
2019-01-14T11:37:48.747Z,95.17
2019-01-14T11:38:48.686Z,94.98
2019-01-14T11:39:48.629Z,95.08
2019-01-14T11:40:48.565Z,94.98
2019-01-14T11:41:48.504Z,95.03
2019-01-14T11:42:48.449Z,95.51
2019-01-14T11:43:48.385Z,95.46
2019-01-14T11:44:48.322Z,95.60
2019-01-14T11:45:48.262Z,95.08
2019-01-14T11:46:48.201Z,95.46
2019-01-14T11:47:48.140Z,95.03
2019-01-14T11:48:48.082Z,95.17
2019-01-14T11:49:48.019Z,95.65
2019-01-14T11:50:47.960Z,95.55
2019-01-14T11:51:47.897Z,94.98
2019-01-14T11:52:47.837Z,94.89
2019-01-14T11:53:47.778Z,95.12
2019-01-14T11:54:47.713Z,94.79
2019-01-14T11:55:47.656Z,95.08
2019-01-14T11:56:47.593Z,94.93
2019-01-14T11:57:47.531Z,94.79
2019-01-14T11:58:47.473Z,94.84
2019-01-14T11:59:47.410Z,95.03
2019-01-14T12:00:47.351Z,95.03
2019-01-14T12:01:47.290Z,94.93
2019-01-14T12:02:47.227Z,95.08
2019-01-14T12:03:47.167Z,95.03
2019-01-14T12:04:47.107Z,95.12
2019-01-14T12:05:47.045Z,95.55
2019-01-14T12:06:46.984Z,95.22
2019-01-14T12:07:46.924Z,95.51
2019-01-14T12:08:46.863Z,95.51
2019-01-14T12:09:46.800Z,95.60
2019-01-14T12:10:46.740Z,95.22
2019-01-14T12:11:46.679Z,95.27
2019-01-14T12:12:46.620Z,95.41
2019-01-14T12:13:46.558Z,95.22
2019-01-14T12:14:46.498Z,95.17
2019-01-14T12:15:46.435Z,95.17
2019-01-14T12:16:46.377Z,95.51
2019-01-14T12:17:46.315Z,95.89
2019-01-14T12:18:46.254Z,95.60
2019-01-14T12:19:46.192Z,95.70
2019-01-14T12:20:46.134Z,95.70
2019-01-14T12:21:46.070Z,95.60
2019-01-14T12:22:46.013Z,95.46
2019-01-14T12:23:45.951Z,95.60
2019-01-14T12:24:45.890Z,95.51
2019-01-14T12:25:45.830Z,95.51
2019-01-14T12:26:45.769Z,95.89
2019-01-14T12:27:45.706Z,95.41
2019-01-14T12:28:45.646Z,95.79
2019-01-14T12:29:45.585Z,95.41
2019-01-14T12:30:45.525Z,95.22
2019-01-14T12:31:45.463Z,95.17
2019-01-14T12:32:45.403Z,95.79
2019-01-14T12:33:45.395Z,95.22
2019-01-14T12:34:45.280Z,95.22
2019-01-14T12:35:45.220Z,95.22
2019-01-14T12:36:45.166Z,95.22
2019-01-14T12:37:45.097Z,95.22
2019-01-14T12:38:45.042Z,95.22
2019-01-14T12:39:44.978Z,95.22
2019-01-14T12:40:44.916Z,95.22
2019-01-14T12:41:51.065Z,95.22
2019-01-14T12:42:44.793Z,95.22
2019-01-14T12:43:44.733Z,95.22
2019-01-14T12:44:44.674Z,95.32
2019-01-14T12:45:44.611Z,95.32
2019-01-14T12:46:44.550Z,95.36
2019-01-14T12:47:44.490Z,95.17
2019-01-14T12:48:44.431Z,95.22
2019-01-14T12:49:44.367Z,95.17
2019-01-14T12:50:44.307Z,95.17
2019-01-14T12:51:44.247Z,95.41
2019-01-14T12:52:44.191Z,95.32
2019-01-14T12:53:44.126Z,95.32
2019-01-14T12:54:44.065Z,95.12
2019-01-14T12:55:44.006Z,95.46
2019-01-14T12:56:43.943Z,95.12
2019-01-14T12:57:43.881Z,95.65
2019-01-14T12:58:43.822Z,95.08
2019-01-14T12:59:43.759Z,95.70
2019-01-14T13:00:43.700Z,95.22
2019-01-14T13:01:43.638Z,95.60
2019-01-14T13:02:43.578Z,95.51
2019-01-14T13:03:43.558Z,95.46
2019-01-14T13:04:43.457Z,95.03
2019-01-14T13:05:43.396Z,95.12
2019-01-14T13:06:43.336Z,95.36
2019-01-14T13:07:43.276Z,95.55
2019-01-14T13:08:43.213Z,95.03
2019-01-14T13:09:43.152Z,94.84